sensor_id;sensor_type;location;lat;lon;timestamp;P1;durP1;ratioP1;P2;durP2;ratioP2
11123;SDS011;5616;42.692;23.312;2022-08-01T00:01:34;3.00;;;2.70;;
11123;SDS011;5616;42.692;23.312;2022-08-01T00:04:01;3.13;;;2.47;;
11123;SDS011;5616;42.692;23.312;2022-08-01T00:06:28;2.57;;;2.37;;
11123;SDS011;5616;42.692;23.312;2022-08-01T00:08:56;4.10;;;2.60;;
11123;SDS011;5616;42.692;23.312;2022-08-01T00:11:23;2.70;;;2.50;;
11123;SDS011;5616;42.692;23.312;2022-08-01T00:13:51;7.23;;;2.60;;
11123;SDS011;5616;42.692;23.312;2022-08-01T00:16:19;2.50;;;2.30;;
11123;SDS011;5616;42.692;23.312;2022-08-01T00:18:47;4.00;;;2.57;;
11123;SDS011;5616;42.692;23.312;2022-08-01T00:21:14;3.83;;;2.47;;
11123;SDS011;5616;42.692;23.312;2022-08-01T00:23:41;2.60;;;2.40;;
11123;SDS011;5616;42.692;23.312;2022-08-01T00:26:08;2.90;;;2.70;;
11123;SDS011;5616;42.692;23.312;2022-08-01T00:28:35;3.27;;;2.97;;
11123;SDS011;5616;42.692;23.312;2022-08-01T00:31:03;3.37;;;2.87;;
11123;SDS011;5616;42.692;23.312;2022-08-01T00:33:30;3.77;;;3.47;;
11123;SDS011;5616;42.692;23.312;2022-08-01T00:35:57;8.23;;;3.80;;
11123;SDS011;5616;42.692;23.312;2022-08-01T00:38:24;3.80;;;3.50;;
11123;SDS011;5616;42.692;23.312;2022-08-01T00:40:51;6.70;;;4.23;;
11123;SDS011;5616;42.692;23.312;2022-08-01T00:43:18;4.60;;;4.20;;
11123;SDS011;5616;42.692;23.312;2022-08-01T00:45:45;5.73;;;4.60;;
11123;SDS011;5616;42.692;23.312;2022-08-01T00:48:14;4.73;;;4.33;;
11123;SDS011;5616;42.692;23.312;2022-08-01T00:50:41;4.40;;;4.10;;
11123;SDS011;5616;42.692;23.312;2022-08-01T00:53:08;4.47;;;4.03;;
11123;SDS011;5616;42.692;23.312;2022-08-01T00:55:35;5.83;;;4.13;;
11123;SDS011;5616;42.692;23.312;2022-08-01T00:58:02;6.10;;;4.70;;
11123;SDS011;5616;42.692;23.312;2022-08-01T01:00:29;5.43;;;4.10;;
11123;SDS011;5616;42.692;23.312;2022-08-01T01:02:56;7.57;;;4.33;;
11123;SDS011;5616;42.692;23.312;2022-08-01T01:05:24;4.67;;;4.27;;
11123;SDS011;5616;42.692;23.312;2022-08-01T01:07:54;4.87;;;4.47;;
11123;SDS011;5616;42.692;23.312;2022-08-01T01:10:28;4.30;;;4.00;;
11123;SDS011;5616;42.692;23.312;2022-08-01T01:13:04;4.60;;;4.10;;
11123;SDS011;5616;42.692;23.312;2022-08-01T01:15:36;4.60;;;4.20;;
11123;SDS011;5616;42.692;23.312;2022-08-01T01:18:09;4.60;;;4.20;;
11123;SDS011;5616;42.692;23.312;2022-08-01T01:20:40;5.60;;;3.87;;
11123;SDS011;5616;42.692;23.312;2022-08-01T01:23:19;5.77;;;4.07;;
11123;SDS011;5616;42.692;23.312;2022-08-01T01:26:03;4.37;;;3.97;;
11123;SDS011;5616;42.692;23.312;2022-08-01T01:28:50;8.43;;;4.17;;
11123;SDS011;5616;42.692;23.312;2022-08-01T01:31:32;4.20;;;3.80;;
11123;SDS011;5616;42.692;23.312;2022-08-01T01:34:05;4.17;;;3.57;;
11123;SDS011;5616;42.692;23.312;2022-08-01T01:36:35;4.20;;;3.40;;
11123;SDS011;5616;42.692;23.312;2022-08-01T01:39:04;5.67;;;3.47;;
11123;SDS011;5616;42.692;23.312;2022-08-01T01:41:33;3.47;;;3.17;;
11123;SDS011;5616;42.692;23.312;2022-08-01T01:44:04;7.33;;;3.17;;
11123;SDS011;5616;42.692;23.312;2022-08-01T01:46:32;3.13;;;2.83;;
11123;SDS011;5616;42.692;23.312;2022-08-01T01:49:00;3.40;;;2.97;;
11123;SDS011;5616;42.692;23.312;2022-08-01T01:51:28;2.63;;;2.43;;
11123;SDS011;5616;42.692;23.312;2022-08-01T01:53:56;7.47;;;3.17;;
11123;SDS011;5616;42.692;23.312;2022-08-01T01:56:25;4.30;;;2.50;;
11123;SDS011;5616;42.692;23.312;2022-08-01T01:58:55;2.67;;;2.40;;
11123;SDS011;5616;42.692;23.312;2022-08-01T02:01:28;2.60;;;2.40;;
11123;SDS011;5616;42.692;23.312;2022-08-01T02:04:00;3.40;;;2.20;;
11123;SDS011;5616;42.692;23.312;2022-08-01T02:06:29;7.43;;;2.47;;
11123;SDS011;5616;42.692;23.312;2022-08-01T02:08:57;5.97;;;2.60;;
11123;SDS011;5616;42.692;23.312;2022-08-01T02:11:27;3.10;;;2.43;;
11123;SDS011;5616;42.692;23.312;2022-08-01T02:13:55;2.13;;;1.93;;
11123;SDS011;5616;42.692;23.312;2022-08-01T02:16:27;2.13;;;1.93;;
11123;SDS011;5616;42.692;23.312;2022-08-01T02:18:55;2.70;;;2.30;;
11123;SDS011;5616;42.692;23.312;2022-08-01T02:21:25;2.10;;;1.90;;
11123;SDS011;5616;42.692;23.312;2022-08-01T02:23:54;2.70;;;2.10;;
11123;SDS011;5616;42.692;23.312;2022-08-01T02:26:26;4.03;;;2.00;;
11123;SDS011;5616;42.692;23.312;2022-08-01T02:28:56;5.90;;;2.30;;
11123;SDS011;5616;42.692;23.312;2022-08-01T02:31:27;2.60;;;2.40;;
11123;SDS011;5616;42.692;23.312;2022-08-01T02:34:00;5.10;;;2.27;;
11123;SDS011;5616;42.692;23.312;2022-08-01T02:36:31;3.53;;;2.50;;
11123;SDS011;5616;42.692;23.312;2022-08-01T02:39:01;2.67;;;2.40;;
11123;SDS011;5616;42.692;23.312;2022-08-01T02:41:30;3.47;;;2.70;;
11123;SDS011;5616;42.692;23.312;2022-08-01T02:44:01;4.57;;;2.47;;
11123;SDS011;5616;42.692;23.312;2022-08-01T02:46:36;4.93;;;2.67;;
11123;SDS011;5616;42.692;23.312;2022-08-01T02:49:05;3.70;;;3.30;;
11123;SDS011;5616;42.692;23.312;2022-08-01T02:51:35;4.80;;;3.10;;
11123;SDS011;5616;42.692;23.312;2022-08-01T02:54:03;4.87;;;3.50;;
11123;SDS011;5616;42.692;23.312;2022-08-01T02:56:33;3.43;;;2.80;;
11123;SDS011;5616;42.692;23.312;2022-08-01T02:59:03;2.83;;;2.63;;
11123;SDS011;5616;42.692;23.312;2022-08-01T03:01:34;3.93;;;2.90;;
11123;SDS011;5616;42.692;23.312;2022-08-01T03:04:02;4.33;;;2.87;;
11123;SDS011;5616;42.692;23.312;2022-08-01T03:06:31;2.83;;;2.63;;
11123;SDS011;5616;42.692;23.312;2022-08-01T03:08:58;5.27;;;2.77;;
11123;SDS011;5616;42.692;23.312;2022-08-01T03:11:28;3.67;;;3.23;;
11123;SDS011;5616;42.692;23.312;2022-08-01T03:13:57;3.07;;;2.77;;
11123;SDS011;5616;42.692;23.312;2022-08-01T03:16:27;3.30;;;3.00;;
11123;SDS011;5616;42.692;23.312;2022-08-01T03:18:58;3.80;;;3.10;;
11123;SDS011;5616;42.692;23.312;2022-08-01T03:21:27;3.30;;;2.90;;
11123;SDS011;5616;42.692;23.312;2022-08-01T03:23:56;6.17;;;2.87;;
11123;SDS011;5616;42.692;23.312;2022-08-01T03:26:26;3.13;;;2.83;;
11123;SDS011;5616;42.692;23.312;2022-08-01T03:28:55;4.10;;;3.17;;
11123;SDS011;5616;42.692;23.312;2022-08-01T03:31:28;4.23;;;3.10;;
11123;SDS011;5616;42.692;23.312;2022-08-01T03:33:55;5.50;;;3.37;;
11123;SDS011;5616;42.692;23.312;2022-08-01T03:36:25;3.60;;;3.30;;
11123;SDS011;5616;42.692;23.312;2022-08-01T03:38:53;3.57;;;3.20;;
11123;SDS011;5616;42.692;23.312;2022-08-01T03:41:26;4.23;;;3.33;;
11123;SDS011;5616;42.692;23.312;2022-08-01T03:44:00;5.73;;;3.20;;
11123;SDS011;5616;42.692;23.312;2022-08-01T03:46:33;4.80;;;3.80;;
11123;SDS011;5616;42.692;23.312;2022-08-01T03:49:07;5.13;;;3.40;;
11123;SDS011;5616;42.692;23.312;2022-08-01T03:51:42;4.50;;;2.87;;
11123;SDS011;5616;42.692;23.312;2022-08-01T03:54:13;9.53;;;3.43;;
11123;SDS011;5616;42.692;23.312;2022-08-01T03:56:42;4.17;;;3.27;;
11123;SDS011;5616;42.692;23.312;2022-08-01T03:59:11;12.13;;;3.60;;
11123;SDS011;5616;42.692;23.312;2022-08-01T04:01:40;7.43;;;3.40;;
11123;SDS011;5616;42.692;23.312;2022-08-01T04:04:07;4.20;;;3.10;;
11123;SDS011;5616;42.692;23.312;2022-08-01T04:06:36;5.17;;;3.47;;
11123;SDS011;5616;42.692;23.312;2022-08-01T04:09:05;4.33;;;3.87;;
11123;SDS011;5616;42.692;23.312;2022-08-01T04:11:33;4.80;;;3.70;;
11123;SDS011;5616;42.692;23.312;2022-08-01T04:14:00;6.00;;;3.93;;
11123;SDS011;5616;42.692;23.312;2022-08-01T04:16:27;5.43;;;4.07;;
11123;SDS011;5616;42.692;23.312;2022-08-01T04:18:54;4.80;;;4.20;;
11123;SDS011;5616;42.692;23.312;2022-08-01T04:21:22;5.37;;;4.30;;
11123;SDS011;5616;42.692;23.312;2022-08-01T04:23:52;6.80;;;4.70;;
11123;SDS011;5616;42.692;23.312;2022-08-01T04:26:23;5.97;;;4.97;;
11123;SDS011;5616;42.692;23.312;2022-08-01T04:28:52;6.87;;;5.60;;
11123;SDS011;5616;42.692;23.312;2022-08-01T04:31:21;5.63;;;4.90;;
11123;SDS011;5616;42.692;23.312;2022-08-01T04:33:51;6.67;;;5.20;;
11123;SDS011;5616;42.692;23.312;2022-08-01T04:36:22;8.93;;;6.60;;
11123;SDS011;5616;42.692;23.312;2022-08-01T04:38:52;9.13;;;5.57;;
11123;SDS011;5616;42.692;23.312;2022-08-01T04:41:25;8.73;;;5.87;;
11123;SDS011;5616;42.692;23.312;2022-08-01T04:43:52;9.03;;;5.73;;
11123;SDS011;5616;42.692;23.312;2022-08-01T04:46:20;7.50;;;5.47;;
11123;SDS011;5616;42.692;23.312;2022-08-01T04:48:48;11.50;;;5.67;;
11123;SDS011;5616;42.692;23.312;2022-08-01T04:51:16;9.20;;;5.70;;
11123;SDS011;5616;42.692;23.312;2022-08-01T04:53:47;8.60;;;5.60;;
11123;SDS011;5616;42.692;23.312;2022-08-01T04:56:16;8.43;;;6.00;;
11123;SDS011;5616;42.692;23.312;2022-08-01T04:58:44;11.20;;;5.80;;
11123;SDS011;5616;42.692;23.312;2022-08-01T05:01:12;6.73;;;5.40;;
11123;SDS011;5616;42.692;23.312;2022-08-01T05:03:39;9.87;;;5.57;;
11123;SDS011;5616;42.692;23.312;2022-08-01T05:06:06;8.80;;;5.63;;
11123;SDS011;5616;42.692;23.312;2022-08-01T05:08:33;7.10;;;5.33;;
11123;SDS011;5616;42.692;23.312;2022-08-01T05:11:01;10.17;;;5.80;;
11123;SDS011;5616;42.692;23.312;2022-08-01T05:13:28;6.70;;;4.93;;
11123;SDS011;5616;42.692;23.312;2022-08-01T05:15:57;6.97;;;5.00;;
11123;SDS011;5616;42.692;23.312;2022-08-01T05:18:23;7.10;;;5.33;;
11123;SDS011;5616;42.692;23.312;2022-08-01T05:20:51;8.63;;;4.97;;
11123;SDS011;5616;42.692;23.312;2022-08-01T05:23:18;6.47;;;4.87;;
11123;SDS011;5616;42.692;23.312;2022-08-01T05:25:45;6.67;;;4.93;;
11123;SDS011;5616;42.692;23.312;2022-08-01T05:28:14;7.30;;;4.80;;
11123;SDS011;5616;42.692;23.312;2022-08-01T05:30:41;6.50;;;4.17;;
11123;SDS011;5616;42.692;23.312;2022-08-01T05:33:09;8.40;;;4.77;;
11123;SDS011;5616;42.692;23.312;2022-08-01T05:35:36;6.20;;;4.90;;
11123;SDS011;5616;42.692;23.312;2022-08-01T05:38:03;7.13;;;3.77;;
11123;SDS011;5616;42.692;23.312;2022-08-01T05:40:30;7.77;;;4.20;;
11123;SDS011;5616;42.692;23.312;2022-08-01T05:42:57;8.60;;;3.80;;
11123;SDS011;5616;42.692;23.312;2022-08-01T05:45:24;5.73;;;4.13;;
11123;SDS011;5616;42.692;23.312;2022-08-01T05:47:51;5.97;;;3.97;;
11123;SDS011;5616;42.692;23.312;2022-08-01T05:50:19;6.70;;;3.87;;
11123;SDS011;5616;42.692;23.312;2022-08-01T05:52:46;5.20;;;3.90;;
11123;SDS011;5616;42.692;23.312;2022-08-01T05:55:13;7.20;;;3.47;;
11123;SDS011;5616;42.692;23.312;2022-08-01T05:57:40;6.43;;;3.73;;
11123;SDS011;5616;42.692;23.312;2022-08-01T06:00:07;7.60;;;3.53;;
11123;SDS011;5616;42.692;23.312;2022-08-01T06:02:41;4.00;;;3.33;;
11123;SDS011;5616;42.692;23.312;2022-08-01T06:05:08;5.10;;;3.33;;
11123;SDS011;5616;42.692;23.312;2022-08-01T06:07:37;4.73;;;3.33;;
11123;SDS011;5616;42.692;23.312;2022-08-01T06:10:05;4.67;;;2.90;;
11123;SDS011;5616;42.692;23.312;2022-08-01T06:12:33;6.80;;;3.37;;
11123;SDS011;5616;42.692;23.312;2022-08-01T06:15:01;6.73;;;2.93;;
11123;SDS011;5616;42.692;23.312;2022-08-01T06:17:28;11.60;;;6.20;;
11123;SDS011;5616;42.692;23.312;2022-08-01T06:19:55;7.20;;;4.23;;
11123;SDS011;5616;42.692;23.312;2022-08-01T06:22:22;8.53;;;4.03;;
11123;SDS011;5616;42.692;23.312;2022-08-01T06:24:50;37.50;;;18.27;;
11123;SDS011;5616;42.692;23.312;2022-08-01T06:27:17;7.55;;;4.60;;
11123;SDS011;5616;42.692;23.312;2022-08-01T06:29:45;4.13;;;2.47;;
11123;SDS011;5616;42.692;23.312;2022-08-01T06:32:12;4.70;;;2.67;;
11123;SDS011;5616;42.692;23.312;2022-08-01T06:34:39;5.80;;;2.00;;
11123;SDS011;5616;42.692;23.312;2022-08-01T06:37:06;3.88;;;2.33;;
11123;SDS011;5616;42.692;23.312;2022-08-01T06:39:33;3.47;;;2.05;;
11123;SDS011;5616;42.692;23.312;2022-08-01T06:42:01;9.63;;;5.28;;
11123;SDS011;5616;42.692;23.312;2022-08-01T06:44:28;3.03;;;2.30;;
11123;SDS011;5616;42.692;23.312;2022-08-01T06:46:55;2.63;;;2.42;;
11123;SDS011;5616;42.692;23.312;2022-08-01T06:49:23;4.32;;;2.10;;
11123;SDS011;5616;42.692;23.312;2022-08-01T06:51:50;2.67;;;2.40;;
11123;SDS011;5616;42.692;23.312;2022-08-01T06:54:17;3.92;;;2.25;;
11123;SDS011;5616;42.692;23.312;2022-08-01T06:56:44;4.22;;;2.20;;
11123;SDS011;5616;42.692;23.312;2022-08-01T06:59:13;4.10;;;2.10;;
11123;SDS011;5616;42.692;23.312;2022-08-01T07:01:39;4.43;;;2.42;;
11123;SDS011;5616;42.692;23.312;2022-08-01T07:04:08;3.35;;;2.72;;
11123;SDS011;5616;42.692;23.312;2022-08-01T07:06:34;2.90;;;2.45;;
11123;SDS011;5616;42.692;23.312;2022-08-01T07:09:01;3.10;;;2.35;;
11123;SDS011;5616;42.692;23.312;2022-08-01T07:11:29;1.95;;;1.85;;
11123;SDS011;5616;42.692;23.312;2022-08-01T07:13:56;5.43;;;2.25;;
11123;SDS011;5616;42.692;23.312;2022-08-01T07:16:25;5.63;;;2.30;;
11123;SDS011;5616;42.692;23.312;2022-08-01T07:18:52;5.40;;;2.35;;
11123;SDS011;5616;42.692;23.312;2022-08-01T07:21:19;4.68;;;2.38;;
11123;SDS011;5616;42.692;23.312;2022-08-01T07:23:46;5.22;;;2.15;;
11123;SDS011;5616;42.692;23.312;2022-08-01T07:26:13;2.55;;;2.13;;
11123;SDS011;5616;42.692;23.312;2022-08-01T07:28:39;2.70;;;1.90;;
11123;SDS011;5616;42.692;23.312;2022-08-01T07:31:06;2.33;;;1.83;;
11123;SDS011;5616;42.692;23.312;2022-08-01T07:33:35;2.58;;;1.77;;
11123;SDS011;5616;42.692;23.312;2022-08-01T07:36:02;5.63;;;2.13;;
11123;SDS011;5616;42.692;23.312;2022-08-01T07:38:29;2.05;;;1.88;;
11123;SDS011;5616;42.692;23.312;2022-08-01T07:40:56;2.50;;;2.05;;
11123;SDS011;5616;42.692;23.312;2022-08-01T07:43:23;3.42;;;2.00;;
11123;SDS011;5616;42.692;23.312;2022-08-01T07:45:50;4.30;;;1.92;;
11123;SDS011;5616;42.692;23.312;2022-08-01T07:48:17;4.15;;;1.80;;
11123;SDS011;5616;42.692;23.312;2022-08-01T07:50:46;2.55;;;1.70;;
11123;SDS011;5616;42.692;23.312;2022-08-01T07:53:13;1.63;;;1.52;;
11123;SDS011;5616;42.692;23.312;2022-08-01T07:55:40;1.98;;;1.80;;
11123;SDS011;5616;42.692;23.312;2022-08-01T07:58:06;4.88;;;1.83;;
11123;SDS011;5616;42.692;23.312;2022-08-01T08:00:34;1.90;;;1.63;;
11123;SDS011;5616;42.692;23.312;2022-08-01T08:03:01;7.13;;;1.73;;
11123;SDS011;5616;42.692;23.312;2022-08-01T08:05:28;7.50;;;2.05;;
11123;SDS011;5616;42.692;23.312;2022-08-01T08:07:56;2.17;;;1.60;;
11123;SDS011;5616;42.692;23.312;2022-08-01T08:10:23;3.05;;;2.05;;
11123;SDS011;5616;42.692;23.312;2022-08-01T08:12:50;2.33;;;1.60;;
11123;SDS011;5616;42.692;23.312;2022-08-01T08:15:17;2.42;;;1.70;;
11123;SDS011;5616;42.692;23.312;2022-08-01T08:17:44;4.57;;;1.95;;
11123;SDS011;5616;42.692;23.312;2022-08-01T08:20:11;3.67;;;1.80;;
11123;SDS011;5616;42.692;23.312;2022-08-01T08:22:39;2.80;;;1.60;;
11123;SDS011;5616;42.692;23.312;2022-08-01T08:25:07;5.28;;;1.65;;
11123;SDS011;5616;42.692;23.312;2022-08-01T08:27:35;1.77;;;1.52;;
11123;SDS011;5616;42.692;23.312;2022-08-01T08:30:03;2.55;;;1.60;;
11123;SDS011;5616;42.692;23.312;2022-08-01T08:32:32;3.90;;;1.60;;
11123;SDS011;5616;42.692;23.312;2022-08-01T08:34:59;3.47;;;1.60;;
11123;SDS011;5616;42.692;23.312;2022-08-01T08:37:26;2.33;;;1.92;;
11123;SDS011;5616;42.692;23.312;2022-08-01T08:39:53;1.70;;;1.48;;
11123;SDS011;5616;42.692;23.312;2022-08-01T08:42:21;3.10;;;1.60;;
11123;SDS011;5616;42.692;23.312;2022-08-01T08:44:49;1.98;;;1.73;;
11123;SDS011;5616;42.692;23.312;2022-08-01T08:47:16;5.22;;;1.73;;
11123;SDS011;5616;42.692;23.312;2022-08-01T08:49:45;3.10;;;1.60;;
11123;SDS011;5616;42.692;23.312;2022-08-01T08:52:13;5.80;;;1.52;;
11123;SDS011;5616;42.692;23.312;2022-08-01T08:54:41;2.38;;;1.70;;
11123;SDS011;5616;42.692;23.312;2022-08-01T08:57:10;4.10;;;1.50;;
11123;SDS011;5616;42.692;23.312;2022-08-01T08:59:40;4.07;;;1.83;;
11123;SDS011;5616;42.692;23.312;2022-08-01T09:02:09;3.70;;;2.00;;
11123;SDS011;5616;42.692;23.312;2022-08-01T09:04:37;3.63;;;1.77;;
11123;SDS011;5616;42.692;23.312;2022-08-01T09:07:05;1.52;;;1.35;;
11123;SDS011;5616;42.692;23.312;2022-08-01T09:09:33;4.20;;;1.50;;
11123;SDS011;5616;42.692;23.312;2022-08-01T09:12:00;2.95;;;1.50;;
11123;SDS011;5616;42.692;23.312;2022-08-01T09:14:27;1.98;;;1.60;;
11123;SDS011;5616;42.692;23.312;2022-08-01T09:17:01;2.72;;;1.70;;
11123;SDS011;5616;42.692;23.312;2022-08-01T09:19:35;2.90;;;1.80;;
11123;SDS011;5616;42.692;23.312;2022-08-01T09:22:04;5.07;;;1.80;;
11123;SDS011;5616;42.692;23.312;2022-08-01T09:24:33;2.28;;;1.58;;
11123;SDS011;5616;42.692;23.312;2022-08-01T09:27:00;3.75;;;1.40;;
11123;SDS011;5616;42.692;23.312;2022-08-01T09:29:41;2.42;;;1.50;;
11123;SDS011;5616;42.692;23.312;2022-08-01T09:32:11;4.47;;;1.70;;
11123;SDS011;5616;42.692;23.312;2022-08-01T09:34:38;1.75;;;1.60;;
11123;SDS011;5616;42.692;23.312;2022-08-01T09:37:05;4.25;;;1.60;;
11123;SDS011;5616;42.692;23.312;2022-08-01T09:39:32;3.13;;;1.58;;
11123;SDS011;5616;42.692;23.312;2022-08-01T09:42:18;2.47;;;1.50;;
11123;SDS011;5616;42.692;23.312;2022-08-01T09:44:46;2.42;;;2.05;;
11123;SDS011;5616;42.692;23.312;2022-08-01T09:47:15;2.63;;;1.80;;
11123;SDS011;5616;42.692;23.312;2022-08-01T09:49:43;2.40;;;2.00;;
11123;SDS011;5616;42.692;23.312;2022-08-01T09:52:11;2.00;;;1.80;;
11123;SDS011;5616;42.692;23.312;2022-08-01T09:54:39;4.82;;;2.00;;
11123;SDS011;5616;42.692;23.312;2022-08-01T09:57:12;4.90;;;2.28;;
11123;SDS011;5616;42.692;23.312;2022-08-01T09:59:40;3.20;;;2.22;;
11123;SDS011;5616;42.692;23.312;2022-08-01T10:02:10;2.30;;;2.10;;
11123;SDS011;5616;42.692;23.312;2022-08-01T10:04:49;2.80;;;1.80;;
11123;SDS011;5616;42.692;23.312;2022-08-01T10:07:17;2.22;;;2.03;;
11123;SDS011;5616;42.692;23.312;2022-08-01T10:09:45;2.67;;;2.10;;
11123;SDS011;5616;42.692;23.312;2022-08-01T10:12:13;5.03;;;2.03;;
11123;SDS011;5616;42.692;23.312;2022-08-01T10:14:42;3.05;;;2.00;;
11123;SDS011;5616;42.692;23.312;2022-08-01T10:17:12;4.18;;;1.92;;
11123;SDS011;5616;42.692;23.312;2022-08-01T10:19:41;3.70;;;1.98;;
11123;SDS011;5616;42.692;23.312;2022-08-01T10:22:12;4.00;;;2.08;;
11123;SDS011;5616;42.692;23.312;2022-08-01T10:24:42;3.10;;;1.77;;
11123;SDS011;5616;42.692;23.312;2022-08-01T10:27:11;2.30;;;2.13;;
11123;SDS011;5616;42.692;23.312;2022-08-01T10:29:41;2.85;;;1.80;;
11123;SDS011;5616;42.692;23.312;2022-08-01T10:32:12;2.53;;;2.10;;
11123;SDS011;5616;42.692;23.312;2022-08-01T10:34:39;3.08;;;2.05;;
11123;SDS011;5616;42.692;23.312;2022-08-01T10:37:06;2.05;;;1.88;;
11123;SDS011;5616;42.692;23.312;2022-08-01T10:39:35;3.72;;;1.88;;
11123;SDS011;5616;42.692;23.312;2022-08-01T10:42:03;3.22;;;1.85;;
11123;SDS011;5616;42.692;23.312;2022-08-01T10:44:30;4.93;;;2.30;;
11123;SDS011;5616;42.692;23.312;2022-08-01T10:47:01;3.28;;;1.80;;
11123;SDS011;5616;42.692;23.312;2022-08-01T10:49:34;1.77;;;1.65;;
11123;SDS011;5616;42.692;23.312;2022-08-01T10:52:06;2.15;;;1.90;;
11123;SDS011;5616;42.692;23.312;2022-08-01T10:54:39;2.17;;;1.85;;
11123;SDS011;5616;42.692;23.312;2022-08-01T10:57:06;1.65;;;1.45;;
11123;SDS011;5616;42.692;23.312;2022-08-01T10:59:33;2.92;;;1.80;;
11123;SDS011;5616;42.692;23.312;2022-08-01T11:02:05;1.85;;;1.75;;
11123;SDS011;5616;42.692;23.312;2022-08-01T11:04:34;1.95;;;1.75;;
11123;SDS011;5616;42.692;23.312;2022-08-01T11:07:12;1.90;;;1.80;;
11123;SDS011;5616;42.692;23.312;2022-08-01T11:09:46;1.90;;;1.80;;
11123;SDS011;5616;42.692;23.312;2022-08-01T11:12:15;4.72;;;2.00;;
11123;SDS011;5616;42.692;23.312;2022-08-01T11:17:53;3.80;;;2.00;;
11123;SDS011;5616;42.692;23.312;2022-08-01T11:20:21;4.72;;;1.90;;
11123;SDS011;5616;42.692;23.312;2022-08-01T11:28:38;3.80;;;2.05;;
11123;SDS011;5616;42.692;23.312;2022-08-01T11:31:25;2.15;;;1.90;;
11123;SDS011;5616;42.692;23.312;2022-08-01T11:33:56;2.25;;;1.88;;
11123;SDS011;5616;42.692;23.312;2022-08-01T11:36:23;2.25;;;1.95;;
11123;SDS011;5616;42.692;23.312;2022-08-01T11:41:44;3.08;;;2.05;;
11123;SDS011;5616;42.692;23.312;2022-08-01T11:44:16;2.08;;;1.88;;
11123;SDS011;5616;42.692;23.312;2022-08-01T11:46:52;2.67;;;1.95;;
11123;SDS011;5616;42.692;23.312;2022-08-01T11:49:34;2.10;;;1.90;;
11123;SDS011;5616;42.692;23.312;2022-08-01T11:52:12;3.65;;;2.10;;
11123;SDS011;5616;42.692;23.312;2022-08-01T11:54:41;2.55;;;1.90;;
11123;SDS011;5616;42.692;23.312;2022-08-01T11:57:11;3.95;;;1.85;;
11123;SDS011;5616;42.692;23.312;2022-08-01T11:59:40;2.33;;;2.00;;
11123;SDS011;5616;42.692;23.312;2022-08-01T12:02:21;2.20;;;2.00;;
11123;SDS011;5616;42.692;23.312;2022-08-01T12:04:50;4.05;;;2.00;;
11123;SDS011;5616;42.692;23.312;2022-08-01T12:07:19;3.78;;;1.92;;
11123;SDS011;5616;42.692;23.312;2022-08-01T12:09:47;4.05;;;2.22;;
11123;SDS011;5616;42.692;23.312;2022-08-01T12:12:16;2.67;;;2.38;;
11123;SDS011;5616;42.692;23.312;2022-08-01T12:14:44;4.30;;;2.20;;
11123;SDS011;5616;42.692;23.312;2022-08-01T12:17:12;4.25;;;2.20;;
11123;SDS011;5616;42.692;23.312;2022-08-01T12:19:39;3.88;;;2.22;;
11123;SDS011;5616;42.692;23.312;2022-08-01T12:22:07;2.60;;;2.40;;
11123;SDS011;5616;42.692;23.312;2022-08-01T12:24:36;6.97;;;2.25;;
11123;SDS011;5616;42.692;23.312;2022-08-01T12:27:04;2.35;;;1.95;;
11123;SDS011;5616;42.692;23.312;2022-08-01T12:29:34;2.30;;;2.10;;
11123;SDS011;5616;42.692;23.312;2022-08-01T12:32:03;3.22;;;2.15;;
11123;SDS011;5616;42.692;23.312;2022-08-01T12:34:30;2.42;;;2.20;;
11123;SDS011;5616;42.692;23.312;2022-08-01T12:37:00;2.63;;;2.10;;
11123;SDS011;5616;42.692;23.312;2022-08-01T12:39:29;7.10;;;2.20;;
11123;SDS011;5616;42.692;23.312;2022-08-01T12:41:57;2.20;;;1.83;;
11123;SDS011;5616;42.692;23.312;2022-08-01T12:44:25;2.90;;;2.05;;
11123;SDS011;5616;42.692;23.312;2022-08-01T12:46:54;2.88;;;2.20;;
11123;SDS011;5616;42.692;23.312;2022-08-01T12:49:21;3.70;;;2.30;;
11123;SDS011;5616;42.692;23.312;2022-08-01T12:51:48;2.53;;;2.10;;
11123;SDS011;5616;42.692;23.312;2022-08-01T12:54:16;3.53;;;2.25;;
11123;SDS011;5616;42.692;23.312;2022-08-01T12:56:43;2.65;;;1.90;;
11123;SDS011;5616;42.692;23.312;2022-08-01T12:59:20;3.25;;;2.15;;
11123;SDS011;5616;42.692;23.312;2022-08-01T13:01:50;3.80;;;2.15;;
11123;SDS011;5616;42.692;23.312;2022-08-01T13:04:19;3.00;;;2.10;;
11123;SDS011;5616;42.692;23.312;2022-08-01T13:06:47;3.10;;;2.13;;
11123;SDS011;5616;42.692;23.312;2022-08-01T13:09:14;2.70;;;2.50;;
11123;SDS011;5616;42.692;23.312;2022-08-01T13:11:41;3.50;;;2.20;;
11123;SDS011;5616;42.692;23.312;2022-08-01T13:14:09;2.15;;;2.00;;
11123;SDS011;5616;42.692;23.312;2022-08-01T13:19:27;2.85;;;2.05;;
11123;SDS011;5616;42.692;23.312;2022-08-01T13:22:08;2.05;;;1.83;;
11123;SDS011;5616;42.692;23.312;2022-08-01T13:24:35;21.10;;;2.70;;
11123;SDS011;5616;42.692;23.312;2022-08-01T13:27:02;2.60;;;2.10;;
11123;SDS011;5616;42.692;23.312;2022-08-01T13:29:31;2.30;;;2.00;;
11123;SDS011;5616;42.692;23.312;2022-08-01T13:31:59;2.00;;;1.80;;
11123;SDS011;5616;42.692;23.312;2022-08-01T13:34:39;2.13;;;1.98;;
11123;SDS011;5616;42.692;23.312;2022-08-01T13:37:06;1.88;;;1.70;;
11123;SDS011;5616;42.692;23.312;2022-08-01T13:39:33;2.00;;;1.80;;
11123;SDS011;5616;42.692;23.312;2022-08-01T13:42:11;2.35;;;2.03;;
11123;SDS011;5616;42.692;23.312;2022-08-01T13:44:40;1.90;;;1.80;;
11123;SDS011;5616;42.692;23.312;2022-08-01T13:47:08;2.58;;;2.05;;
11123;SDS011;5616;42.692;23.312;2022-08-01T13:49:35;5.28;;;2.30;;
11123;SDS011;5616;42.692;23.312;2022-08-01T13:52:03;6.80;;;2.08;;
11123;SDS011;5616;42.692;23.312;2022-08-01T13:54:31;2.15;;;1.95;;
11123;SDS011;5616;42.692;23.312;2022-08-01T13:56:58;4.28;;;2.03;;
11123;SDS011;5616;42.692;23.312;2022-08-01T13:59:25;4.00;;;1.92;;
11123;SDS011;5616;42.692;23.312;2022-08-01T14:01:52;1.88;;;1.77;;
11123;SDS011;5616;42.692;23.312;2022-08-01T14:04:19;3.85;;;2.10;;
11123;SDS011;5616;42.692;23.312;2022-08-01T14:06:46;4.47;;;2.00;;
11123;SDS011;5616;42.692;23.312;2022-08-01T14:09:15;3.88;;;2.00;;
11123;SDS011;5616;42.692;23.312;2022-08-01T14:11:44;3.72;;;1.98;;
11123;SDS011;5616;42.692;23.312;2022-08-01T14:14:11;2.70;;;2.20;;
11123;SDS011;5616;42.692;23.312;2022-08-01T14:16:38;3.20;;;1.98;;
11123;SDS011;5616;42.692;23.312;2022-08-01T14:19:05;3.15;;;1.98;;
11123;SDS011;5616;42.692;23.312;2022-08-01T14:21:32;3.53;;;2.10;;
11123;SDS011;5616;42.692;23.312;2022-08-01T14:23:59;2.50;;;1.70;;
11123;SDS011;5616;42.692;23.312;2022-08-01T14:26:27;2.42;;;1.98;;
11123;SDS011;5616;42.692;23.312;2022-08-01T14:28:54;3.72;;;1.98;;
11123;SDS011;5616;42.692;23.312;2022-08-01T14:31:21;2.83;;;2.00;;
11123;SDS011;5616;42.692;23.312;2022-08-01T14:33:48;2.53;;;2.20;;
11123;SDS011;5616;42.692;23.312;2022-08-01T14:36:15;2.00;;;1.90;;
11123;SDS011;5616;42.692;23.312;2022-08-01T14:38:42;3.00;;;2.28;;
11123;SDS011;5616;42.692;23.312;2022-08-01T14:41:09;5.50;;;2.20;;
11123;SDS011;5616;42.692;23.312;2022-08-01T14:43:37;3.92;;;1.92;;
11123;SDS011;5616;42.692;23.312;2022-08-01T14:46:04;2.38;;;1.55;;
11123;SDS011;5616;42.692;23.312;2022-08-01T14:48:33;3.38;;;1.80;;
11123;SDS011;5616;42.692;23.312;2022-08-01T14:51:00;3.10;;;1.95;;
11123;SDS011;5616;42.692;23.312;2022-08-01T14:53:27;2.65;;;1.95;;
11123;SDS011;5616;42.692;23.312;2022-08-01T14:55:55;3.33;;;1.83;;
11123;SDS011;5616;42.692;23.312;2022-08-01T14:58:22;2.20;;;1.98;;
11123;SDS011;5616;42.692;23.312;2022-08-01T15:00:50;2.00;;;1.90;;
11123;SDS011;5616;42.692;23.312;2022-08-01T15:03:19;2.80;;;1.80;;
11123;SDS011;5616;42.692;23.312;2022-08-01T15:05:46;2.80;;;1.85;;
11123;SDS011;5616;42.692;23.312;2022-08-01T15:08:13;2.28;;;1.90;;
11123;SDS011;5616;42.692;23.312;2022-08-01T15:10:40;2.65;;;1.92;;
11123;SDS011;5616;42.692;23.312;2022-08-01T15:13:07;2.67;;;1.65;;